Time;durP1;ratioP1;P1;durP2;ratioP2;P2;SDS_P1;SDS_P2;PMS_P1;PMS_P2;Temp;Humidity;BMP_temperature;BMP_pressure;BME280_temperature;BME280_humidity;BME280_pressure;Samples;Min_cycle;Max_cycle;Signal;HPM_P1;HPM_P2
2022/01/21 00:00:28;;;;;;;18.45;2.30;;;;;;;1.76;100.00;103087.66;4998465;28;20049;-73
2022/01/21 00:02:54;;;;;;;13.23;1.83;;;;;;;1.46;100.00;103048.13;4980703;28;20038;-74
2022/01/21 00:05:21;;;;;;;17.75;2.50;;;;;;;1.79;100.00;103089.34;4997220;28;20022;-73
2022/01/21 00:07:48;;;;;;;13.30;2.00;;;;;;;1.92;100.00;103077.03;4997940;28;20031;-75
2022/01/21 00:10:14;;;;;;;15.68;1.65;;;;;;;1.71;100.00;103067.78;4998924;28;20141;-74
2022/01/21 00:12:39;;;;;;;15.18;2.83;;;;;;;2.08;100.00;103094.16;5003674;28;20049;-73
2022/01/21 00:15:07;;;;;;;16.33;2.28;;;;;;;1.95;100.00;103085.66;5004424;28;20034;-74
2022/01/21 00:17:34;;;;;;;20.85;1.88;;;;;;;1.72;100.00;103057.31;5016011;28;20113;-74
2022/01/21 00:31:01;;;;;;;16.30;1.70;;;;;;;1.80;100.00;103071.09;4996394;28;20065;-75
2022/01/21 00:33:27;;;;;;;13.13;1.80;;;;;;;1.73;100.00;103079.91;4996669;28;20038;-74
2022/01/21 00:35:52;;;;;;;22.27;2.25;;;;;;;1.86;100.00;103084.06;4995668;28;20033;-74
2022/01/21 00:38:24;;;;;;;14.15;1.60;;;;;;;1.71;100.00;103099.88;4980317;28;20035;-74
2022/01/21 00:40:50;;;;;;;15.43;2.03;;;;;;;1.87;100.00;103105.75;4995254;28;20491;-74
2022/01/21 00:43:29;;;;;;;13.32;1.70;;;;;;;1.81;100.00;103091.06;4995030;28;20448;-74
2022/01/21 00:45:54;;;;;;;12.80;1.98;;;;;;;1.85;100.00;103090.13;4996066;28;20460;-75
2022/01/21 00:48:20;;;;;;;10.23;1.90;;;;;;;2.06;100.00;103124.59;4982103;28;20077;-74
2022/01/21 00:50:47;;;;;;;16.83;1.80;;;;;;;1.99;100.00;103095.16;4999123;28;20077;-74
2022/01/21 00:53:13;;;;;;;16.42;2.08;;;;;;;2.15;100.00;103127.06;4999386;28;20023;-74
2022/01/21 00:55:42;;;;;;;16.05;2.00;;;;;;;1.96;100.00;103096.97;4999284;28;20334;-75
2022/01/21 00:58:08;;;;;;;13.43;2.10;;;;;;;2.00;100.00;103102.09;4998328;28;20022;-75
2022/01/21 01:00:33;;;;;;;12.55;1.70;;;;;;;1.75;100.00;103112.00;4997878;28;20417;-75
2022/01/21 01:03:00;;;;;;;16.10;2.08;;;;;;;1.66;100.00;103073.91;4998500;28;20186;-75
2022/01/21 01:05:26;;;;;;;13.57;1.60;;;;;;;1.87;100.00;103126.59;4981401;28;20487;-75
2022/01/21 01:07:53;;;;;;;15.30;1.85;;;;;;;1.66;100.00;103078.25;4980674;28;20502;-74
2022/01/21 01:10:34;;;;;;;14.88;1.95;;;;;;;1.95;100.00;103110.84;5013629;28;20038;-74
2022/01/21 01:19:53;;;;;;;12.35;1.90;;;;;;;1.71;100.00;103109.44;5016311;28;20027;-73
2022/01/21 01:21:15;;;;;;;14.80;1.80;;;;;;;1.39;100.00;103077.72;4998748;28;20034;-74
2022/01/21 01:29:09;;;;;;;14.15;1.85;;;;;;;1.60;100.00;103114.78;5003121;28;20041;-74
2022/01/21 01:31:36;;;;;;;12.80;1.63;;;;;;;1.64;100.00;103086.09;5001316;28;20039;-74
2022/01/21 01:34:02;;;;;;;9.55;1.35;;;;;;;1.73;100.00;103115.50;4985028;28;20495;-73
2022/01/21 01:36:28;;;;;;;14.60;2.10;;;;;;;1.67;100.00;103112.06;4998879;28;20026;-74
2022/01/21 01:39:08;;;;;;;11.32;1.55;;;;;;;1.66;100.00;103114.72;4997398;28;20027;-74
2022/01/21 01:41:41;;;;;;;11.13;1.70;;;;;;;1.56;100.00;103115.69;4980991;28;20041;-75
2022/01/21 01:49:37;;;;;;;10.52;1.73;;;;;;;1.63;100.00;103123.41;5014082;28;20113;-73
2022/01/21 01:52:11;;;;;;;4.60;1.30;;;;;;;1.63;100.00;103107.78;4996598;28;20544;-74
2022/01/21 01:54:41;;;;;;;11.88;1.65;;;;;;;1.60;100.00;103126.06;4996468;28;20030;-74
2022/01/21 01:57:07;;;;;;;11.32;1.58;;;;;;;1.25;100.00;103105.66;4999724;28;20436;-74
2022/01/21 01:59:33;;;;;;;8.15;1.38;;;;;;;1.23;100.00;103097.84;4988383;28;20073;-72
2022/01/21 02:02:14;;;;;;;9.57;1.27;;;;;;;1.35;100.00;103111.59;4999660;28;20034;-71
2022/01/21 02:04:42;;;;;;;15.20;1.90;;;;;;;1.53;100.00;103098.38;5014601;28;20465;-73
2022/01/21 02:07:08;;;;;;;11.20;1.50;;;;;;;1.20;100.00;103073.59;5014831;28;20041;-72
2022/01/21 02:09:35;;;;;;;10.60;1.55;;;;;;;1.50;100.00;103094.94;5001171;28;20026;-72
2022/01/21 02:12:02;;;;;;;9.52;1.27;;;;;;;1.44;100.00;103083.72;5013715;28;20033;-72
2022/01/21 02:14:32;;;;;;;11.45;1.58;;;;;;;1.62;100.00;103110.44;5011025;28;20026;-72
2022/01/21 02:22:09;;;;;;;8.93;1.33;;;;;;;1.78;100.00;103103.28;4995489;28;20029;-73
2022/01/21 02:24:47;;;;;;;11.15;1.60;;;;;;;1.80;100.00;103106.72;4993961;28;20378;-73
2022/01/21 02:27:14;;;;;;;7.50;1.50;;;;;;;1.68;100.00;103097.31;4995515;28;20330;-73
2022/01/21 02:29:51;;;;;;;9.82;1.60;;;;;;;1.94;100.00;103096.13;4994377;28;20037;-72
2022/01/21 02:32:19;;;;;;;8.85;1.50;;;;;;;1.73;100.00;103102.50;4995541;28;20469;-72
2022/01/21 02:34:46;;;;;;;11.20;1.27;;;;;;;1.69;100.00;103075.59;4995544;28;20461;-72
2022/01/21 02:37:16;;;;;;;15.43;2.05;;;;;;;1.75;100.00;103085.06;5010822;28;20023;-73
2022/01/21 02:39:42;;;;;;;9.38;1.70;;;;;;;2.05;100.00;103100.28;5011123;28;20077;-72
2022/01/21 02:42:08;;;;;;;15.27;2.10;;;;;;;1.90;100.00;103097.88;5011520;28;20033;-71
2022/01/21 02:44:35;;;;;;;9.27;1.45;;;;;;;1.91;100.00;103096.13;4999327;28;20043;-72
2022/01/21 02:47:02;;;;;;;10.85;1.40;;;;;;;1.89;100.00;103101.41;4994776;28;20026;-72
2022/01/21 02:49:29;;;;;;;11.18;1.67;;;;;;;2.04;100.00;103103.78;4993933;28;20023;-73
2022/01/21 02:51:56;;;;;;;11.63;1.50;;;;;;;1.72;100.00;103100.75;4979378;28;20097;-72
2022/01/21 02:54:22;;;;;;;12.90;1.80;;;;;;;1.81;100.00;103088.44;4998192;28;20112;-73
2022/01/21 02:56:49;;;;;;;12.68;1.90;;;;;;;1.44;100.00;103049.03;5003170;28;20317;-73
2022/01/21 02:59:15;;;;;;;11.18;1.70;;;;;;;1.54;100.00;103060.16;4996070;28;20037;-74
2022/01/21 03:01:42;;;;;;;8.32;1.42;;;;;;;1.54;100.00;103074.03;4996214;28;20034;-72
2022/01/21 03:04:22;;;;;;;14.48;2.22;;;;;;;1.76;100.00;103102.44;4994746;28;20034;-73
2022/01/21 03:06:48;;;;;;;13.05;1.60;;;;;;;1.56;100.00;103103.53;4993389;28;20060;-73
2022/01/21 03:09:14;;;;;;;11.25;1.60;;;;;;;1.81;100.00;103098.88;5009966;28;20079;-72
2022/01/21 03:11:39;;;;;;;11.95;1.65;;;;;;;1.76;100.00;103081.59;4994472;28;20022;-72
2022/01/21 03:14:05;;;;;;;10.98;1.48;;;;;;;2.03;100.00;103088.16;5009412;28;20023;-72
2022/01/21 03:16:31;;;;;;;13.05;1.63;;;;;;;2.07;100.00;103108.94;4994432;28;20066;-72
2022/01/21 03:18:57;;;;;;;9.20;1.52;;;;;;;1.96;100.00;103084.78;5009311;28;20041;-73
2022/01/21 03:21:23;;;;;;;10.30;1.80;;;;;;;1.78;100.00;103069.41;4994037;28;20026;-73
2022/01/21 03:23:51;;;;;;;8.38;1.65;;;;;;;1.82;100.00;103098.00;4995756;28;20026;-73
2022/01/21 03:26:49;;;;;;;9.70;1.70;;;;;;;2.09;100.00;103119.38;5373359;23;20348;31
2022/01/21 03:29:15;;;;;;;17.75;2.00;;;;;;;1.98;100.00;103108.22;4972802;28;20048;-72
2022/01/21 03:31:41;;;;;;;13.05;2.05;;;;;;;1.94;100.00;103114.34;4975510;28;20038;-72
2022/01/21 03:34:07;;;;;;;14.52;1.83;;;;;;;1.86;100.00;103101.41;4973750;28;20027;-72
2022/01/21 03:36:35;;;;;;;14.25;2.03;;;;;;;1.75;100.00;103112.00;4957769;28;20031;-73
2022/01/21 03:39:00;;;;;;;11.27;2.00;;;;;;;2.02;100.00;103118.59;4975361;28;20099;-72
2022/01/21 03:41:26;;;;;;;11.07;1.90;;;;;;;1.81;100.00;103113.66;4974609;28;20034;-72
2022/01/21 03:43:52;;;;;;;14.98;1.98;;;;;;;1.79;100.00;103116.25;4976002;28;20023;-73
2022/01/21 03:46:18;;;;;;;11.07;2.20;;;;;;;1.71;100.00;103094.69;4974123;28;20023;-71
2022/01/21 03:48:47;;;;;;;12.57;2.13;;;;;;;1.61;100.00;103085.25;4973279;28;20046;-72
2022/01/21 03:51:13;;;;;;;12.02;2.10;;;;;;;1.60;100.00;103093.94;4974967;28;20030;-72
2022/01/21 03:53:39;;;;;;;11.98;1.75;;;;;;;1.86;100.00;103117.94;4974936;28;20039;-72
2022/01/21 03:56:04;;;;;;;9.77;1.63;;;;;;;1.74;100.00;103085.97;4973983;28;20027;-72
2022/01/21 03:58:30;;;;;;;11.00;2.17;;;;;;;1.85;100.00;103108.38;4974463;28;20041;-72
2022/01/21 04:00:56;;;;;;;12.10;1.80;;;;;;;1.93;100.00;103104.81;4974280;28;20110;-72
2022/01/21 04:03:24;;;;;;;11.85;1.65;;;;;;;1.91;100.00;103102.25;4974512;28;20086;-72
2022/01/21 04:05:50;;;;;;;11.65;1.80;;;;;;;1.86;100.00;103110.13;4973237;28;20106;-72
2022/01/21 04:08:16;;;;;;;14.95;1.83;;;;;;;1.86;100.00;103080.56;4975036;28;20034;-73
2022/01/21 04:10:44;;;;;;;9.82;1.73;;;;;;;2.10;100.00;103110.66;4974818;28;20034;-73
2022/01/21 04:13:18;;;;;;;13.80;1.90;;;;;;;1.98;100.00;103121.25;4973930;28;20030;-71
2022/01/21 04:15:46;;;;;;;10.87;2.17;;;;;;;1.81;100.00;103119.72;4973754;28;20144;-73
2022/01/21 04:18:13;;;;;;;10.38;2.03;;;;;;;1.72;100.00;103109.41;4958652;28;20648;-71
2022/01/21 04:20:40;;;;;;;11.75;1.70;;;;;;;1.84;100.00;103111.00;4975112;28;20091;-73
2022/01/21 04:23:06;;;;;;;13.57;1.88;;;;;;;1.73;100.00;103110.31;4976575;28;20122;-72
2022/01/21 04:25:35;;;;;;;8.40;1.30;;;;;;;1.76;100.00;103125.88;4977029;28;20051;-72
2022/01/21 04:28:00;;;;;;;10.10;1.38;;;;;;;1.91;100.00;103127.41;4961800;28;20118;-72
2022/01/21 04:30:26;;;;;;;10.48;1.50;;;;;;;1.88;100.00;103117.88;4977443;28;20089;-71
2022/01/21 04:32:52;;;;;;;18.73;1.58;;;;;;;2.04;100.00;103119.44;4978476;28;20038;-73
2022/01/21 04:35:21;;;;;;;11.93;1.25;;;;;;;2.08;100.00;103135.88;4977159;28;20062;-73
2022/01/21 04:37:54;;;;;;;9.77;1.60;;;;;;;2.09;100.00;103111.53;4977039;28;20365;-71
2022/01/21 04:40:22;;;;;;;6.13;0.95;;;;;;;1.99;100.00;103087.34;4978230;28;20030;-72
2022/01/21 04:48:17;;;;;;;13.37;1.80;;;;;;;2.20;100.00;103096.63;4976892;28;20372;-72
2022/01/21 04:50:54;;;;;;;7.28;1.30;;;;;;;2.20;100.00;103119.19;4978180;28;20080;-73
2022/01/21 04:53:20;;;;;;;9.85;1.27;;;;;;;2.22;100.00;103097.41;4977828;28;20031;-72
2022/01/21 04:55:46;;;;;;;8.88;1.40;;;;;;;2.27;100.00;103108.66;4977304;28;20050;-72
2022/01/21 04:58:12;;;;;;;9.70;1.60;;;;;;;2.45;100.00;103125.78;4977260;28;20023;-73
2022/01/21 05:00:38;;;;;;;15.32;1.58;;;;;;;2.31;100.00;103127.72;4978802;28;20085;-73
2022/01/21 05:03:04;;;;;;;13.70;1.60;;;;;;;2.00;100.00;103109.94;4962267;28;20121;-72
2022/01/21 05:05:30;;;;;;;12.18;1.70;;;;;;;1.96;100.00;103104.78;4962464;28;20069;-73
2022/01/21 05:07:59;;;;;;;13.93;1.88;;;;;;;2.04;100.00;103090.75;4979523;28;20048;-73
2022/01/21 05:10:27;;;;;;;17.52;2.10;;;;;;;1.93;100.00;103076.13;4965944;28;20037;-75
2022/01/21 05:12:53;;;;;;;15.88;1.88;;;;;;;2.03;100.00;103115.09;4981029;28;20110;-74
2022/01/21 05:15:43;;;;;;;13.25;1.75;;;;;;;2.01;100.00;103102.97;4962201;28;20030;-73
2022/01/21 05:18:09;;;;;;;14.20;2.10;;;;;;;2.00;100.00;103099.50;4961921;28;20031;-73
2022/01/21 05:20:38;;;;;;;11.30;1.63;;;;;;;1.91;100.00;103117.88;4979629;28;20096;-72
2022/01/21 05:23:04;;;;;;;11.00;1.90;;;;;;;1.97;100.00;103109.94;4987471;28;20038;-74
2022/01/21 05:25:29;;;;;;;16.98;1.73;;;;;;;2.09;100.00;103108.94;4984397;28;20027;-74
2022/01/21 05:27:58;;;;;;;12.00;2.08;;;;;;;2.22;100.00;103110.44;4980266;28;20038;-75
2022/01/21 05:30:24;;;;;;;9.60;1.58;;;;;;;1.95;100.00;103070.03;4977918;28;20045;-73
2022/01/21 05:32:52;;;;;;;10.50;1.77;;;;;;;1.51;100.00;103029.81;4977109;28;20027;-75
2022/01/21 05:35:17;;;;;;;8.15;1.42;;;;;;;1.78;100.00;103106.75;4960376;28;20037;-73
2022/01/21 05:37:43;;;;;;;14.70;1.75;;;;;;;1.74;100.00;103083.34;4978352;28;20090;-75
2022/01/21 05:40:13;;;;;;;9.52;1.80;;;;;;;1.86;100.00;103091.88;4977868;28;20031;-74
2022/01/21 05:42:39;;;;;;;12.10;1.80;;;;;;;1.87;100.00;103105.75;4979976;28;20496;-74
2022/01/21 05:47:36;;;;;;;9.10;1.60;;;;;;;1.68;100.00;103094.69;5001631;28;20045;-75
2022/01/21 05:50:03;;;;;;;11.82;2.30;;;;;;;1.57;100.00;103078.38;5000215;28;20018;-75
2022/01/21 05:52:40;;;;;;;11.35;2.20;;;;;;;1.90;100.00;103115.28;4995977;28;20026;-74
2022/01/21 05:55:06;;;;;;;12.90;2.03;;;;;;;1.80;100.00;103135.38;4984263;28;20027;-74
2022/01/21 05:57:32;;;;;;;18.75;2.08;;;;;;;1.74;100.00;103118.06;4979636;28;20035;-75
2022/01/21 05:59:58;;;;;;;10.68;1.80;;;;;;;1.85;100.00;103126.63;4963683;28;20122;-76
2022/01/21 06:02:24;;;;;;;12.27;1.90;;;;;;;2.01;100.00;103114.25;4980585;28;20038;-76
2022/01/21 06:04:51;;;;;;;11.93;2.00;;;;;;;1.97;100.00;103135.16;4983905;28;20023;-77
2022/01/21 06:07:17;;;;;;;12.90;2.05;;;;;;;1.81;100.00;103129.28;4965702;28;20050;-73
2022/01/21 06:09:43;;;;;;;14.35;1.85;;;;;;;1.85;100.00;103115.34;4991584;28;20026;-76
2022/01/21 06:12:10;;;;;;;11.55;1.80;;;;;;;1.94;100.00;103120.41;4991041;28;20457;-76
2022/01/21 06:14:38;;;;;;;12.05;2.05;;;;;;;1.34;100.00;103070.81;4983534;28;20412;-75
2022/01/21 06:17:04;;;;;;;12.95;2.55;;;;;;;1.81;100.00;103117.09;4961917;28;20015;-75
2022/01/21 06:19:30;;;;;;;14.93;2.30;;;;;;;1.67;100.00;103114.69;4985467;28;20026;-75
2022/01/21 06:21:55;;;;;;;15.73;1.88;;;;;;;1.92;100.00;103130.00;4987933;28;20516;-76
2022/01/21 06:24:21;;;;;;;18.15;2.47;;;;;;;2.02;100.00;103126.41;4990332;28;20033;-75
2022/01/21 06:26:47;;;;;;;15.60;2.97;;;;;;;2.11;100.00;103138.41;4994313;28;20523;-75
2022/01/21 06:29:15;;;;;;;14.75;2.85;;;;;;;1.79;100.00;103126.69;4992434;28;20465;-75
2022/01/21 06:31:41;;;;;;;16.83;3.20;;;;;;;1.76;100.00;103129.34;4977858;28;20096;-75
2022/01/21 06:34:10;;;;;;;17.23;2.50;;;;;;;1.90;100.00;103136.13;4994243;28;20030;-76
2022/01/21 06:36:37;;;;;;;14.23;2.50;;;;;;;1.67;100.00;103082.56;4985027;28;20360;-76
2022/01/21 06:39:06;;;;;;;9.80;1.90;;;;;;;1.91;100.00;103120.47;4990931;28;20023;-77
2022/01/21 06:41:34;;;;;;;10.57;1.90;;;;;;;1.99;100.00;103138.59;4974798;28;20088;-76
2022/01/21 06:44:01;;;;;;;11.32;2.00;;;;;;;1.99;100.00;103144.66;4989511;28;20022;-76
2022/01/21 06:46:27;;;;;;;14.63;1.83;;;;;;;1.79;100.00;103099.78;4988803;28;20118;-75
2022/01/21 06:48:53;;;;;;;13.30;1.77;;;;;;;1.94;100.00;103150.84;4973258;28;20538;-74
2022/01/21 06:51:18;;;;;;;76.82;23.60;;;;;;;1.97;100.00;103137.75;4990188;28;20026;-77
2022/01/21 06:53:44;;;;;;;16.33;3.67;;;;;;;2.07;100.00;103136.75;4989849;28;20109;-76
2022/01/21 06:56:10;;;;;;;15.68;1.95;;;;;;;1.78;100.00;103106.75;4984391;28;20019;-74
2022/01/21 06:58:43;;;;;;;20.27;4.47;;;;;;;1.67;100.00;103095.59;4982570;28;20085;-76
2022/01/21 07:01:09;;;;;;;19.98;6.70;;;;;;;1.97;100.00;103158.59;4975046;28;20069;-78
2022/01/21 07:03:35;;;;;;;18.48;3.35;;;;;;;2.01;100.00;103170.72;4972292;28;20113;-77
2022/01/21 07:06:03;;;;;;;10.48;2.03;;;;;;;2.09;100.00;103167.13;4972861;28;20023;-74
2022/01/21 07:08:29;;;;;;;9.85;2.00;;;;;;;2.09;100.00;103129.78;4973745;28;20102;-76
2022/01/21 07:10:54;;;;;;;14.98;2.15;;;;;;;2.35;100.00;103163.28;4990323;28;20038;-72
2022/01/21 07:13:20;;;;;;;15.68;2.65;;;;;;;2.26;100.00;103160.81;4983691;28;20026;-74
2022/01/21 07:15:46;;;;;;;14.23;2.10;;;;;;;2.12;100.00;103140.16;4995827;28;20094;-74
2022/01/21 07:18:12;;;;;;;15.50;2.08;;;;;;;1.91;100.00;103124.81;4978689;28;20018;-74
2022/01/21 07:20:37;;;;;;;13.13;2.42;;;;;;;2.05;100.00;103113.31;4974982;28;20034;-76
2022/01/21 07:23:03;;;;;;;25.15;6.10;;;;;;;2.17;100.00;103135.75;4991525;28;20433;-76
2022/01/21 07:25:29;;;;;;;11.80;2.50;;;;;;;2.25;100.00;103159.97;4978480;28;20027;-77
2022/01/21 07:27:55;;;;;;;16.25;2.05;;;;;;;2.42;100.00;103151.03;4984382;28;20053;-75
2022/01/21 07:30:21;;;;;;;16.63;3.03;;;;;;;2.22;100.00;103094.81;4979214;28;20041;-75
2022/01/21 07:32:52;;;;;;;12.13;2.45;;;;;;;2.57;100.00;103147.34;4982572;28;20078;-75
2022/01/21 07:35:20;;;;;;;14.05;2.53;;;;;;;2.34;100.00;103145.94;4975321;28;20493;-77
2022/01/21 07:37:46;;;;;;;13.80;2.40;;;;;;;2.16;100.00;103065.38;4979205;28;20021;-75
2022/01/21 07:40:12;;;;;;;54.05;15.40;;;;;;;2.75;100.00;103146.16;4990835;28;20034;-74
2022/01/21 07:42:41;;;;;;;20.95;3.70;;;;;;;2.48;100.00;103114.44;4988832;28;20031;-75
2022/01/21 07:45:07;;;;;;;16.65;2.50;;;;;;;2.61;100.00;103104.63;4979900;28;20030;-74
2022/01/21 07:47:32;;;;;;;14.23;2.63;;;;;;;2.67;100.00;103117.59;4986463;28;20054;-75
2022/01/21 07:49:58;;;;;;;19.48;2.85;;;;;;;2.90;100.00;103138.06;4978213;28;20027;-75
2022/01/21 07:52:33;;;;;;;22.80;3.90;;;;;;;3.00;100.00;103143.97;4970508;28;20081;-74
2022/01/21 07:55:05;;;;;;;16.05;2.35;;;;;;;2.93;100.00;103120.63;4973983;28;20023;-74
2022/01/21 07:57:30;;;;;;;15.10;2.17;;;;;;;2.87;100.00;103114.66;4973644;28;20117;-74
2022/01/21 08:00:02;;;;;;;23.42;3.17;;;;;;;2.90;100.00;103120.66;4973299;28;20465;-76
2022/01/21 08:02:29;;;;;;;17.13;2.88;;;;;;;2.84;100.00;103123.41;4973721;28;20381;-74
2022/01/21 08:04:56;;;;;;;11.90;2.50;;;;;;;3.28;100.00;103162.66;4973706;28;20140;-74
2022/01/21 08:07:22;;;;;;;16.98;2.30;;;;;;;2.78;100.00;103086.09;4975597;28;20023;-76
2022/01/21 08:09:49;;;;;;;14.77;2.63;;;;;;;3.16;100.00;103168.06;4974785;28;20077;-75
2022/01/21 08:12:21;;;;;;;19.15;2.25;;;;;;;3.12;100.00;103107.25;4959190;28;20480;-76
2022/01/21 08:14:47;;;;;;;20.45;2.50;;;;;;;3.10;100.00;103143.81;4994630;28;20030;-76
2022/01/21 08:17:13;;;;;;;21.95;2.60;;;;;;;2.98;100.00;103128.38;5448201;23;20065;-75
2022/01/21 08:19:39;;;;;;;16.40;2.05;;;;;;;3.45;100.00;103172.75;5014004;28;20105;-76
2022/01/21 08:22:08;;;;;;;18.58;2.30;;;;;;;3.34;100.00;103157.31;5013469;28;20072;-76
2022/01/21 08:24:35;;;;;;;17.88;3.92;;;;;;;3.36;100.00;103129.38;5014386;28;20101;-76
2022/01/21 08:27:01;;;;;;;19.10;3.78;;;;;;;3.37;100.00;103125.06;5014735;28;20028;-75
2022/01/21 08:29:27;;;;;;;17.08;2.85;;;;;;;3.11;100.00;103085.50;5012261;28;20054;-76
2022/01/21 08:32:04;;;;;;;17.42;4.32;;;;;;;3.37;100.00;103099.78;4998922;28;20101;-77
2022/01/21 08:34:34;;;;;;;12.35;2.20;;;;;;;3.58;100.00;103131.59;5016619;28;20026;-74
2022/01/21 08:37:01;;;;;;;18.88;3.13;;;;;;;3.98;100.00;103148.16;5014254;28;20026;-74
2022/01/21 08:39:30;;;;;;;19.42;3.40;;;;;;;3.68;100.00;103092.19;5014702;28;20108;-74
2022/01/21 08:41:56;;;;;;;22.23;2.55;;;;;;;3.86;100.00;103100.50;5014005;28;20034;-74
2022/01/21 08:44:22;;;;;;;26.02;3.88;;;;;;;4.11;100.00;103129.56;5014427;28;20338;-73
2022/01/21 08:46:48;;;;;;;26.33;6.20;;;;;;;4.00;100.00;103111.53;5013589;28;20025;-74
2022/01/21 08:49:18;;;;;;;37.83;7.45;;;;;;;4.03;100.00;103121.06;5013756;28;20026;-74
2022/01/21 08:51:51;;;;;;;37.30;8.95;;;;;;;4.12;100.00;103145.25;5016240;28;20029;-75
2022/01/21 08:54:18;;;;;;;105.63;22.60;;;;;;;4.25;100.00;103153.69;5015556;28;20121;-75
2022/01/21 08:56:45;;;;;;;56.63;13.13;;;;;;;4.07;100.00;103120.09;4999218;28;20021;-77
2022/01/21 08:59:12;;;;;;;25.05;5.40;;;;;;;4.19;100.00;103151.19;5016138;28;20022;-74
2022/01/21 09:01:37;;;;;;;19.58;3.80;;;;;;;3.89;100.00;103121.38;5037346;28;20032;-75
2022/01/21 09:04:28;;;;;;;21.48;3.63;;;;;;;4.16;100.00;103156.50;5022042;28;20018;-77
2022/01/21 09:06:54;;;;;;;20.77;4.00;;;;;;;4.11;100.00;103140.03;5021895;28;20081;-76
2022/01/21 09:09:20;;;;;;;21.05;3.45;;;;;;;3.94;100.00;103120.38;5023177;28;20029;-75
2022/01/21 09:11:45;;;;;;;15.50;2.78;;;;;;;3.88;100.00;103109.19;5021520;28;20036;-74
2022/01/21 09:14:14;;;;;;;21.13;3.20;;;;;;;4.25;100.00;103158.91;5020093;28;20360;-75
2022/01/21 09:16:42;;;;;;;13.10;1.90;;;;;;;4.06;100.00;103107.91;5020774;28;20019;-75
2022/01/21 09:19:08;;;;;;;17.50;1.65;;;;;;;4.05;100.00;103124.50;5000902;28;20503;-75
2022/01/21 09:21:41;;;;;;;18.40;2.22;;;;;;;4.18;100.00;103126.81;5017626;28;20042;-74
2022/01/21 09:24:07;;;;;;;17.08;2.33;;;;;;;4.19;100.00;103118.06;5015778;28;20380;-75
2022/01/21 09:26:33;;;;;;;11.93;1.90;;;;;;;4.27;100.00;103093.47;5018856;28;20018;-75
2022/01/21 09:29:03;;;;;;;19.40;5.05;;;;;;;4.46;100.00;103123.53;5020763;28;20049;-78
2022/01/21 09:31:32;;;;;;;17.63;4.53;;;;;;;4.23;100.00;103095.31;5003497;28;20578;-77
2022/01/21 09:33:58;;;;;;;17.75;2.17;;;;;;;4.38;100.00;103099.31;5020287;28;20360;-77
2022/01/21 09:36:28;;;;;;;25.58;4.85;;;;;;;4.48;100.00;103115.66;5021061;28;20068;-76
2022/01/21 09:38:53;;;;;;;11.32;1.75;;;;;;;4.80;100.00;103159.38;5022106;28;20014;-78
2022/01/21 09:41:20;;;;;;;15.18;1.90;;;;;;;4.58;100.00;103159.00;5019540;28;20026;-76
2022/01/21 09:43:53;;;;;;;10.90;1.80;;;;;;;4.28;100.00;103113.53;5016485;28;20104;-75
2022/01/21 09:46:35;;;;;;;12.73;2.40;;;;;;;4.08;100.00;103093.91;5018099;28;20029;-77
2022/01/21 09:51:55;;;;;;;15.30;2.72;;;;;;;4.95;100.00;103172.06;5009744;28;20026;-76
2022/01/21 09:54:25;;;;;;;15.32;1.90;;;;;;;4.61;100.00;103096.16;5018491;28;20057;-76
2022/01/21 09:56:56;;;;;;;19.60;2.97;;;;;;;4.87;100.00;103160.94;5003809;28;20033;-75
2022/01/21 09:59:25;;;;;;;8.55;1.60;;;;;;;4.48;100.00;103149.69;5013044;28;20042;-75
2022/01/21 10:01:54;;;;;;;13.27;1.95;;;;;;;4.59;100.00;103139.81;5002619;28;20117;-76
2022/01/21 10:04:24;;;;;;;12.95;1.63;;;;;;;4.76;100.00;103176.03;5020415;28;20344;-75
2022/01/21 10:06:51;;;;;;;12.60;1.80;;;;;;;4.79;100.00;103149.78;5015845;28;20030;-74
2022/01/21 10:09:20;;;;;;;13.50;1.92;;;;;;;4.89;100.00;103151.28;5015408;28;20026;-73
2022/01/21 10:11:49;;;;;;;10.75;1.88;;;;;;;4.75;100.00;103122.84;5015270;28;20480;-75
2022/01/21 10:14:16;;;;;;;13.18;1.80;;;;;;;5.12;100.00;103140.19;5030838;28;20537;-75
2022/01/21 10:16:43;;;;;;;14.93;2.13;;;;;;;5.13;100.00;103160.28;5014064;28;20026;-74
2022/01/21 10:19:11;;;;;;;9.90;1.85;;;;;;;5.26;100.00;103158.16;5017302;28;20029;-75
2022/01/21 10:21:44;;;;;;;18.08;3.17;;;;;;;5.37;100.00;103169.22;5017151;28;20045;-78
2022/01/21 10:24:12;;;;;;;13.48;2.22;;;;;;;5.24;100.00;103165.19;5036491;28;20389;-75
2022/01/21 10:26:50;;;;;;;11.75;1.90;;;;;;;5.02;100.00;103133.50;4999676;28;20009;-76
2022/01/21 10:29:17;;;;;;;17.45;2.33;;;;;;;4.79;100.00;103128.84;5031849;28;20014;-77
2022/01/21 10:31:54;;;;;;;14.75;2.00;;;;;;;5.00;100.00;103149.25;5001830;28;20337;-74
2022/01/21 10:34:26;;;;;;;14.88;2.20;;;;;;;5.15;100.00;103174.16;5033618;28;20025;-75
2022/01/21 10:37:03;;;;;;;17.35;1.80;;;;;;;4.78;100.00;103150.69;5033096;28;20022;-74
2022/01/21 10:39:30;;;;;;;15.73;2.00;;;;;;;5.14;100.00;103169.84;5014828;28;20360;-75
2022/01/21 10:41:59;;;;;;;20.65;2.10;;;;;;;5.34;100.00;103178.94;5014397;28;20021;-75
2022/01/21 10:44:30;;;;;;;14.93;2.20;;;;;;;5.16;100.00;103173.28;4998267;28;20490;-74
2022/01/21 10:47:02;;;;;;;20.05;2.72;;;;;;;5.33;100.00;103166.72;5034585;28;20320;-75
2022/01/21 10:49:28;;;;;;;12.65;1.95;;;;;;;5.10;100.00;103121.03;5016174;28;20080;-75
2022/01/21 10:51:55;;;;;;;19.48;2.10;;;;;;;5.46;100.00;103152.38;4999546;28;20021;-74
2022/01/21 10:54:26;;;;;;;12.93;2.10;;;;;;;5.44;100.00;103133.22;5000124;28;20110;-76
2022/01/21 10:57:17;;;;;;;18.40;2.35;;;;;;;5.70;100.00;103150.84;5034462;28;20048;-73
2022/01/21 11:00:02;;;;;;;18.30;2.42;;;;;;;5.83;100.00;103172.31;5034225;28;20030;-75
2022/01/21 11:02:39;;;;;;;20.10;2.75;;;;;;;5.56;100.00;103145.13;5017970;28;20033;-73
2022/01/21 11:05:11;;;;;;;13.95;2.30;;;;;;;6.06;100.00;103150.69;5033705;28;20040;-75
2022/01/21 11:07:49;;;;;;;18.88;2.55;;;;;;;6.17;100.00;103138.09;4998876;28;20413;-74
2022/01/21 11:10:36;;;;;;;20.17;2.60;;;;;;;6.12;100.00;103158.38;5015690;28;20509;-76
2022/01/21 11:13:23;;;;;;;14.60;2.28;;;;;;;5.67;100.00;103118.59;5016200;28;20040;-75
2022/01/21 11:15:57;;;;;;;10.75;1.98;;;;;;;5.61;100.00;103170.31;4998998;28;20147;-75
2022/01/21 11:18:28;;;;;;;21.07;2.43;;;;;;;5.43;100.00;103176.06;5002424;28;20124;-74
2022/01/21 11:21:07;;;;;;;22.23;3.55;;;;;;;5.16;100.00;103157.56;4999764;28;20084;-75
2022/01/21 11:23:36;;;;;;;16.00;2.50;;;;;;;5.15;100.00;103154.97;5015144;28;20127;-76
2022/01/21 11:26:09;;;;;;;11.77;2.25;;;;;;;4.97;100.00;103124.88;5013444;28;20025;-75
2022/01/21 11:28:48;;;;;;;23.55;2.40;;;;;;;5.34;100.00;103147.50;5033548;28;20091;-76
2022/01/21 11:31:26;;;;;;;14.45;2.08;;;;;;;5.20;100.00;103146.09;5014883;28;20494;-74
2022/01/21 11:33:52;;;;;;;18.52;1.95;;;;;;;5.21;100.00;103139.09;5032681;28;20037;-75
2022/01/21 11:36:18;;;;;;;15.35;2.45;;;;;;;5.33;100.00;103111.69;5031058;28;20021;-77
2022/01/21 11:39:08;;;;;;;14.77;2.13;;;;;;;5.76;100.00;103141.94;5042978;28;20017;-73
2022/01/21 11:41:38;;;;;;;19.17;2.78;;;;;;;6.16;100.00;103140.78;5003145;28;20025;-76
2022/01/21 11:44:09;;;;;;;20.95;3.80;;;;;;;6.07;100.00;103131.44;5018563;28;20336;-75
2022/01/21 11:49:08;;;;;;;17.08;1.85;;;;;;;5.72;100.00;103137.69;5017337;28;20470;-82
2022/01/21 11:51:42;;;;;;;16.85;2.47;;;;;;;5.51;100.00;103103.31;5017842;28;20026;-79
2022/01/21 11:54:13;;;;;;;11.32;2.13;;;;;;;5.37;100.00;103100.25;5031535;28;20030;-76
2022/01/21 11:57:02;;;;;;;12.98;2.05;;;;;;;5.18;100.00;103061.47;4999340;28;20032;-76
2022/01/21 11:59:33;;;;;;;13.90;1.80;;;;;;;5.67;100.00;103140.44;5018152;28;20021;-74
2022/01/21 12:02:19;;;;;;;12.80;1.80;;;;;;;5.46;100.00;103105.22;4998141;28;20041;-76
2022/01/21 12:04:52;;;;;;;16.63;2.45;;;;;;;5.53;100.00;103130.34;5031867;28;20025;-76
2022/01/21 12:07:36;;;;;;;10.65;1.55;;;;;;;5.51;100.00;103129.53;5015774;28;20032;-76
2022/01/21 12:10:02;;;;;;;12.73;2.20;;;;;;;5.47;100.00;103130.50;5033754;28;20045;-76